Time;durP1;ratioP1;P1;durP2;ratioP2;P2;SDS_P1;SDS_P2;PMS_P1;PMS_P2;Temp;Humidity;BMP_temperature;BMP_pressure;BME280_temperature;BME280_humidity;BME280_pressure;Samples;Min_cycle;Max_cycle;Signal;HPM_P1;HPM_P2
2021/06/30 00:00:07;;;;;;;0.00;0.00;;;;;;;;;;5012631;28;20419;-65
2021/06/30 00:02:33;;;;;;;0.00;0.00;;;;;;;;;;5022718;28;20273;-65
2021/06/30 00:04:59;;;;;;;0.00;0.00;;;;;;;;;;5022764;28;20245;-65
2021/06/30 00:07:27;;;;;;;0.00;0.00;;;;;;;;;;5022947;28;20272;-65
2021/06/30 00:09:53;;;;;;;0.00;0.00;;;;;;;;;;5022935;28;20215;-65
2021/06/30 00:12:19;;;;;;;0.10;0.10;;;;;;;;;;5022934;28;20283;-65
2021/06/30 00:14:46;;;;;;;0.05;0.05;;;;;;;;;;5008774;28;20255;-65
2021/06/30 00:17:13;;;;;;;0.00;0.00;;;;;;;;;;5016591;28;20211;-64
2021/06/30 00:19:39;;;;;;;0.10;0.10;;;;;;;;;;5003346;28;20269;-64
2021/06/30 00:22:06;;;;;;;0.08;0.08;;;;;;;;;;5020913;28;20207;-64
2021/06/30 00:24:33;;;;;;;0.00;0.00;;;;;;;;;;5012695;28;20570;-65
2021/06/30 00:27:00;;;;;;;0.10;0.10;;;;;;;;;;5003016;28;20267;-65
2021/06/30 00:29:26;;;;;;;0.10;0.10;;;;;;;;;;5011758;28;20209;-65
2021/06/30 00:31:52;;;;;;;0.00;0.00;;;;;;;;;;5022416;28;20231;-64
2021/06/30 00:34:18;;;;;;;0.00;0.00;;;;;;;;;;5022559;28;20206;-65
2021/06/30 00:36:46;;;;;;;0.00;0.00;;;;;;;;;;5022268;28;20480;-64
2021/06/30 00:39:13;;;;;;;0.10;0.10;;;;;;;;;;5022347;28;20246;-65
2021/06/30 00:41:40;;;;;;;0.00;0.00;;;;;;;;;;5022581;28;20215;-65
2021/06/30 00:44:06;;;;;;;0.10;0.10;;;;;;;;;;5005074;28;20232;-64
2021/06/30 00:46:33;;;;;;;0.00;0.00;;;;;;;;;;5002617;28;20216;-65
2021/06/30 00:49:00;;;;;;;0.00;0.00;;;;;;;;;;5002639;28;20234;-65
2021/06/30 00:51:28;;;;;;;0.00;0.00;;;;;;;;;;5002942;28;20552;-65
2021/06/30 00:53:54;;;;;;;0.00;0.00;;;;;;;;;;5016951;28;20284;-66
2021/06/30 00:56:23;;;;;;;0.10;0.10;;;;;;;;;;5016412;28;20413;-65
2021/06/30 00:58:52;;;;;;;0.00;0.00;;;;;;;;;;5002662;28;20216;-65
2021/06/30 01:01:18;;;;;;;0.00;0.00;;;;;;;;;;5016673;28;20552;-65
2021/06/30 01:03:45;;;;;;;0.00;0.00;;;;;;;;;;5014177;28;20247;-64
2021/06/30 01:06:11;;;;;;;0.00;0.00;;;;;;;;;;5019106;28;20216;-65
2021/06/30 01:08:37;;;;;;;0.00;0.00;;;;;;;;;;5002898;28;20207;-64
2021/06/30 01:11:04;;;;;;;0.00;0.00;;;;;;;;;;5003981;28;20208;-64
2021/06/30 01:13:30;;;;;;;0.00;0.00;;;;;;;;;;5008874;28;20253;-64
2021/06/30 01:15:57;;;;;;;0.00;0.00;;;;;;;;;;5006305;28;20223;-64
2021/06/30 01:18:23;;;;;;;0.10;0.10;;;;;;;;;;5004663;28;20257;-64
2021/06/30 01:20:50;;;;;;;0.03;0.03;;;;;;;;;;5014161;28;20203;-64
2021/06/30 01:23:18;;;;;;;0.00;0.00;;;;;;;;;;5016279;28;20242;-67
2021/06/30 01:25:44;;;;;;;0.10;0.10;;;;;;;;;;5015609;28;20227;-66
2021/06/30 01:28:11;;;;;;;0.00;0.00;;;;;;;;;;5015000;28;20213;-65
2021/06/30 01:30:38;;;;;;;0.00;0.00;;;;;;;;;;5022136;28;20254;-66
2021/06/30 01:33:04;;;;;;;0.00;0.00;;;;;;;;;;5022280;28;20379;-65
2021/06/30 01:35:31;;;;;;;0.10;0.10;;;;;;;;;;5025151;28;20255;-70
2021/06/30 01:37:57;;;;;;;0.10;0.10;;;;;;;;;;5025127;28;20239;-66
2021/06/30 01:40:25;;;;;;;0.00;0.00;;;;;;;;;;5024137;28;20248;-66
2021/06/30 01:42:53;;;;;;;0.00;0.00;;;;;;;;;;5012514;28;20275;-66
2021/06/30 01:45:19;;;;;;;0.00;0.00;;;;;;;;;;5025435;28;20270;-66
2021/06/30 01:47:45;;;;;;;0.00;0.00;;;;;;;;;;5025335;28;20326;-66
2021/06/30 01:50:12;;;;;;;0.00;0.00;;;;;;;;;;5025202;28;20378;-66
2021/06/30 01:52:38;;;;;;;0.00;0.00;;;;;;;;;;5010985;28;20218;-66
2021/06/30 01:55:05;;;;;;;0.10;0.10;;;;;;;;;;5025071;28;20249;-66
2021/06/30 01:57:33;;;;;;;0.00;0.00;;;;;;;;;;5024602;28;20207;-66
2021/06/30 01:59:59;;;;;;;0.00;0.00;;;;;;;;;;5017289;28;20227;-66
2021/06/30 02:02:28;;;;;;;0.00;0.00;;;;;;;;;;5019011;28;20250;-66
2021/06/30 02:04:56;;;;;;;0.10;0.10;;;;;;;;;;5025400;28;20472;-66
2021/06/30 02:07:22;;;;;;;0.08;0.08;;;;;;;;;;5024891;28;20408;-66
2021/06/30 02:09:48;;;;;;;0.00;0.00;;;;;;;;;;5010822;28;20259;-66
2021/06/30 02:12:14;;;;;;;0.00;0.00;;;;;;;;;;5024715;28;20533;-66
2021/06/30 02:14:42;;;;;;;0.10;0.10;;;;;;;;;;5024413;28;20199;-66
2021/06/30 02:17:08;;;;;;;0.10;0.10;;;;;;;;;;5024599;28;20214;-66
2021/06/30 02:19:34;;;;;;;0.00;0.00;;;;;;;;;;5024578;28;20370;-66
2021/06/30 02:22:01;;;;;;;0.00;0.00;;;;;;;;;;5024059;28;20255;-66
2021/06/30 02:24:27;;;;;;;0.00;0.00;;;;;;;;;;5024326;28;20232;-66
2021/06/30 02:26:53;;;;;;;0.10;0.10;;;;;;;;;;5022617;28;20220;-66
2021/06/30 02:29:19;;;;;;;0.00;0.00;;;;;;;;;;5004580;28;20299;-66
2021/06/30 02:31:47;;;;;;;0.00;0.00;;;;;;;;;;5018802;28;20266;-66
2021/06/30 02:34:13;;;;;;;0.00;0.00;;;;;;;;;;5010503;28;20198;-66
2021/06/30 02:36:39;;;;;;;0.00;0.00;;;;;;;;;;5024540;28;20511;-66
2021/06/30 02:39:06;;;;;;;0.00;0.00;;;;;;;;;;5010191;28;20208;-66
2021/06/30 02:41:32;;;;;;;0.10;0.10;;;;;;;;;;5012463;28;20204;-66
2021/06/30 02:43:58;;;;;;;0.10;0.10;;;;;;;;;;5022806;28;20276;-67
2021/06/30 02:46:25;;;;;;;0.00;0.00;;;;;;;;;;5022307;28;20249;-66
2021/06/30 02:48:52;;;;;;;0.00;0.00;;;;;;;;;;5020735;28;20203;-66
2021/06/30 02:51:18;;;;;;;0.00;0.00;;;;;;;;;;5010327;28;20476;-66
2021/06/30 02:53:45;;;;;;;0.10;0.10;;;;;;;;;;5023995;28;20206;-66
2021/06/30 02:56:11;;;;;;;0.10;0.10;;;;;;;;;;5024099;28;20212;-66
2021/06/30 02:58:37;;;;;;;0.00;0.00;;;;;;;;;;5016347;28;20208;-66
2021/06/30 03:01:04;;;;;;;0.10;0.10;;;;;;;;;;5004405;28;20210;-66
2021/06/30 03:03:30;;;;;;;0.10;0.10;;;;;;;;;;5023905;28;20551;-66
2021/06/30 03:05:58;;;;;;;0.10;0.10;;;;;;;;;;5023855;28;20422;-66
2021/06/30 03:08:24;;;;;;;0.00;0.00;;;;;;;;;;5010281;28;20236;-66
2021/06/30 03:10:51;;;;;;;0.00;0.00;;;;;;;;;;5024058;28;20206;-66
2021/06/30 03:13:17;;;;;;;0.10;0.10;;;;;;;;;;5024462;28;20210;-66
2021/06/30 03:15:44;;;;;;;0.10;0.10;;;;;;;;;;5016369;28;20216;-66
2021/06/30 03:18:10;;;;;;;0.00;0.00;;;;;;;;;;5017778;28;20211;-65
2021/06/30 03:20:36;;;;;;;0.00;0.00;;;;;;;;;;5023975;28;20260;-65
2021/06/30 03:23:04;;;;;;;0.00;0.00;;;;;;;;;;5023570;28;20483;-65
2021/06/30 03:25:30;;;;;;;0.00;0.00;;;;;;;;;;5023593;28;20234;-66
2021/06/30 03:27:56;;;;;;;0.08;0.08;;;;;;;;;;5023764;28;20313;-66
2021/06/30 03:30:23;;;;;;;0.10;0.10;;;;;;;;;;5010007;28;20545;-65
2021/06/30 03:32:49;;;;;;;0.03;0.03;;;;;;;;;;5023409;28;20202;-65
2021/06/30 03:35:15;;;;;;;0.10;0.10;;;;;;;;;;5023982;28;20210;-65
2021/06/30 03:37:42;;;;;;;0.00;0.00;;;;;;;;;;5023470;28;20258;-65
2021/06/30 03:40:10;;;;;;;0.10;0.10;;;;;;;;;;5023644;28;20306;-65
2021/06/30 03:42:36;;;;;;;0.10;0.10;;;;;;;;;;5014235;28;20207;-65
2021/06/30 03:45:03;;;;;;;0.00;0.00;;;;;;;;;;5023405;28;20433;-65
2021/06/30 03:47:29;;;;;;;0.00;0.00;;;;;;;;;;5009375;28;20205;-65
2021/06/30 03:49:58;;;;;;;0.10;0.10;;;;;;;;;;5023066;28;20219;-65
2021/06/30 03:52:24;;;;;;;0.00;0.00;;;;;;;;;;5023298;28;20232;-66
2021/06/30 03:54:53;;;;;;;0.00;0.00;;;;;;;;;;5023451;28;20210;-66
2021/06/30 03:57:20;;;;;;;0.10;0.10;;;;;;;;;;5022607;28;20252;-66
2021/06/30 03:59:47;;;;;;;0.00;0.00;;;;;;;;;;5003149;28;20224;-67
2021/06/30 04:02:13;;;;;;;0.10;0.10;;;;;;;;;;5002933;28;20207;-66
2021/06/30 04:04:39;;;;;;;0.00;0.00;;;;;;;;;;5016759;28;20259;-66
2021/06/30 04:07:05;;;;;;;0.00;0.00;;;;;;;;;;5013265;28;20379;-66
2021/06/30 04:09:32;;;;;;;0.10;0.10;;;;;;;;;;5023135;28;20400;-66
2021/06/30 04:11:58;;;;;;;0.00;0.00;;;;;;;;;;5022641;28;20487;-66
2021/06/30 04:14:27;;;;;;;0.00;0.00;;;;;;;;;;5022524;28;20208;-66
2021/06/30 04:16:53;;;;;;;0.00;0.00;;;;;;;;;;5022872;28;20229;-66
2021/06/30 04:19:21;;;;;;;0.10;0.10;;;;;;;;;;5022921;28;20427;-66
2021/06/30 04:21:47;;;;;;;0.00;0.00;;;;;;;;;;5022623;28;20234;-66
2021/06/30 04:24:13;;;;;;;0.00;0.00;;;;;;;;;;5022721;28;20455;-66
2021/06/30 04:26:39;;;;;;;0.05;0.05;;;;;;;;;;5022198;28;20247;-66
2021/06/30 04:29:06;;;;;;;0.00;0.00;;;;;;;;;;5022842;28;20545;-65
2021/06/30 04:31:33;;;;;;;0.00;0.00;;;;;;;;;;5022525;28;20248;-66
2021/06/30 04:34:00;;;;;;;0.00;0.00;;;;;;;;;;5022690;28;20229;-66
2021/06/30 04:36:26;;;;;;;0.00;0.00;;;;;;;;;;5022729;28;20215;-66
2021/06/30 04:38:53;;;;;;;0.05;0.05;;;;;;;;;;5022780;28;20316;-66
2021/06/30 04:41:19;;;;;;;0.00;0.00;;;;;;;;;;5022487;28;20217;-66
2021/06/30 04:43:45;;;;;;;0.08;0.08;;;;;;;;;;5022614;28;20233;-66
2021/06/30 04:46:11;;;;;;;0.00;0.00;;;;;;;;;;5022359;28;20204;-66
2021/06/30 04:48:39;;;;;;;0.00;0.00;;;;;;;;;;5022706;28;20489;-66
2021/06/30 04:51:06;;;;;;;0.00;0.00;;;;;;;;;;5017991;28;20511;-66
2021/06/30 04:53:32;;;;;;;0.10;0.10;;;;;;;;;;5012726;28;20226;-66
2021/06/30 04:55:59;;;;;;;0.00;0.00;;;;;;;;;;5022501;28;20215;-67
2021/06/30 04:58:25;;;;;;;0.00;0.00;;;;;;;;;;5022167;28;20219;-66
2021/06/30 05:00:53;;;;;;;0.00;0.00;;;;;;;;;;5022156;28;20208;-66
2021/06/30 05:03:20;;;;;;;0.00;0.00;;;;;;;;;;5015342;28;20252;-66
2021/06/30 05:05:47;;;;;;;0.00;0.00;;;;;;;;;;5015407;28;20263;-66
2021/06/30 05:08:13;;;;;;;0.00;0.00;;;;;;;;;;5022500;28;20212;-66
2021/06/30 05:10:40;;;;;;;0.10;0.10;;;;;;;;;;5025836;28;20258;-67
2021/06/30 05:13:06;;;;;;;0.00;0.00;;;;;;;;;;5026296;28;20271;-66
2021/06/30 05:15:32;;;;;;;0.00;0.00;;;;;;;;;;5026018;28;20405;-66
2021/06/30 05:17:59;;;;;;;0.52;0.52;;;;;;;;;;5026185;28;20494;-66
2021/06/30 05:20:26;;;;;;;0.00;0.00;;;;;;;;;;5026065;28;20506;-66
2021/06/30 05:22:53;;;;;;;0.00;0.00;;;;;;;;;;5026000;28;20384;-65
2021/06/30 05:25:19;;;;;;;0.00;0.00;;;;;;;;;;5012028;28;20227;-65
2021/06/30 05:27:46;;;;;;;0.08;0.08;;;;;;;;;;5025622;28;20214;-65
2021/06/30 05:30:12;;;;;;;0.00;0.00;;;;;;;;;;5025543;28;20204;-66
2021/06/30 05:32:39;;;;;;;0.00;0.00;;;;;;;;;;5025519;28;20283;-66
2021/06/30 05:35:05;;;;;;;0.00;0.00;;;;;;;;;;5023221;28;20204;-65
2021/06/30 05:37:32;;;;;;;0.03;0.03;;;;;;;;;;5005816;28;20211;-65
2021/06/30 05:39:59;;;;;;;0.00;0.00;;;;;;;;;;5019934;28;20305;-65
2021/06/30 05:42:26;;;;;;;0.00;0.00;;;;;;;;;;5025571;28;20207;-65
2021/06/30 05:44:52;;;;;;;0.00;0.00;;;;;;;;;;5025294;28;20241;-65
2021/06/30 05:47:18;;;;;;;0.00;0.00;;;;;;;;;;5024863;28;20225;-65
2021/06/30 05:49:45;;;;;;;0.20;0.20;;;;;;;;;;5021962;28;20263;-65
2021/06/30 05:52:11;;;;;;;0.00;0.00;;;;;;;;;;5012464;28;20215;-66
2021/06/30 05:54:37;;;;;;;0.03;0.03;;;;;;;;;;5008155;28;20208;-65
2021/06/30 05:57:05;;;;;;;0.00;0.00;;;;;;;;;;5020868;28;20208;-66
2021/06/30 05:59:31;;;;;;;0.00;0.00;;;;;;;;;;5015395;28;20379;-66
2021/06/30 06:01:57;;;;;;;0.05;0.05;;;;;;;;;;5012455;28;20508;-66
2021/06/30 06:04:24;;;;;;;0.00;0.00;;;;;;;;;;5009406;28;20248;-66
2021/06/30 06:06:50;;;;;;;0.10;0.10;;;;;;;;;;5005599;28;20288;-65
2021/06/30 06:09:16;;;;;;;0.10;0.10;;;;;;;;;;5024824;28;20283;-65
2021/06/30 06:11:42;;;;;;;0.10;0.10;;;;;;;;;;5025140;28;20382;-65
2021/06/30 06:14:10;;;;;;;0.10;0.10;;;;;;;;;;5025251;28;20535;-66
2021/06/30 06:16:37;;;;;;;0.00;0.00;;;;;;;;;;5022240;28;20263;-66
2021/06/30 06:19:04;;;;;;;0.00;0.00;;;;;;;;;;5025205;28;20212;-66
2021/06/30 06:21:32;;;;;;;0.00;0.00;;;;;;;;;;5016535;28;20274;-65
2021/06/30 06:23:58;;;;;;;0.00;0.00;;;;;;;;;;5024061;28;20469;-65
2021/06/30 06:26:24;;;;;;;0.00;0.00;;;;;;;;;;5023308;28;20391;-65
2021/06/30 06:28:50;;;;;;;0.00;0.00;;;;;;;;;;5023499;28;20213;-66
2021/06/30 06:31:19;;;;;;;0.00;0.00;;;;;;;;;;5020133;28;20205;-65
2021/06/30 06:33:45;;;;;;;0.10;0.10;;;;;;;;;;5016468;28;20207;-67
2021/06/30 06:36:12;;;;;;;0.00;0.00;;;;;;;;;;5008212;28;20205;-65
2021/06/30 06:38:38;;;;;;;0.00;0.00;;;;;;;;;;5014391;28;20209;-65
2021/06/30 06:41:04;;;;;;;0.00;0.00;;;;;;;;;;5024065;28;20219;-66
2021/06/30 06:43:32;;;;;;;0.10;0.10;;;;;;;;;;5024373;28;20250;-65
2021/06/30 06:45:58;;;;;;;0.00;0.00;;;;;;;;;;5022325;28;20456;-66
2021/06/30 06:48:26;;;;;;;0.00;0.00;;;;;;;;;;5021637;28;20492;-66
2021/06/30 06:50:52;;;;;;;0.00;0.00;;;;;;;;;;5021752;28;20212;-66
2021/06/30 06:53:18;;;;;;;0.10;0.10;;;;;;;;;;5004553;28;20260;-65
2021/06/30 06:55:44;;;;;;;0.10;0.10;;;;;;;;;;5018511;28;20271;-66
2021/06/30 06:58:11;;;;;;;0.05;0.05;;;;;;;;;;5005824;28;20478;-65
2021/06/30 07:00:37;;;;;;;0.00;0.00;;;;;;;;;;5016922;28;20447;-66
2021/06/30 07:03:04;;;;;;;0.05;0.05;;;;;;;;;;5023727;28;20232;-67
2021/06/30 07:05:31;;;;;;;0.10;0.10;;;;;;;;;;5023693;28;20227;-66
2021/06/30 07:07:57;;;;;;;0.10;0.10;;;;;;;;;;5023567;28;20668;-65
2021/06/30 07:10:24;;;;;;;0.00;0.00;;;;;;;;;;5022475;28;20206;-67
2021/06/30 07:12:50;;;;;;;0.08;0.08;;;;;;;;;;5009011;28;20213;-67
2021/06/30 07:15:16;;;;;;;0.00;0.00;;;;;;;;;;5007929;28;20223;-65
2021/06/30 07:17:43;;;;;;;0.00;0.00;;;;;;;;;;5017396;28;20208;-68
2021/06/30 07:20:09;;;;;;;0.00;0.00;;;;;;;;;;5024195;28;20208;-67
2021/06/30 07:22:37;;;;;;;0.00;0.00;;;;;;;;;;5023555;28;20214;-66
2021/06/30 07:25:03;;;;;;;0.10;0.10;;;;;;;;;;5023556;28;20297;-65
2021/06/30 07:27:30;;;;;;;0.00;0.00;;;;;;;;;;5023927;28;20208;-66
2021/06/30 07:29:56;;;;;;;0.00;0.00;;;;;;;;;;5023456;28;20203;-65
2021/06/30 07:32:22;;;;;;;0.00;0.00;;;;;;;;;;5023218;28;20208;-65
2021/06/30 07:34:48;;;;;;;0.00;0.00;;;;;;;;;;5023968;28;20211;-66
2021/06/30 07:37:15;;;;;;;0.10;0.10;;;;;;;;;;5023296;28;20212;-65
2021/06/30 07:39:42;;;;;;;0.00;0.00;;;;;;;;;;5023956;28;20279;-66
2021/06/30 07:42:09;;;;;;;0.00;0.00;;;;;;;;;;5023338;28;20263;-66
2021/06/30 07:44:35;;;;;;;0.08;0.08;;;;;;;;;;5013765;28;20225;-66
2021/06/30 07:47:01;;;;;;;0.10;0.10;;;;;;;;;;5006372;28;20210;-67
2021/06/30 07:49:28;;;;;;;0.00;0.00;;;;;;;;;;5023079;28;20226;-67
2021/06/30 07:51:54;;;;;;;0.10;0.10;;;;;;;;;;5022628;28;20273;-65
2021/06/30 07:54:20;;;;;;;0.10;0.10;;;;;;;;;;5022711;28;20334;-66
2021/06/30 07:56:48;;;;;;;0.00;0.00;;;;;;;;;;5022949;28;20202;-65
2021/06/30 07:59:14;;;;;;;0.05;0.05;;;;;;;;;;5022855;28;20402;-66
2021/06/30 08:01:40;;;;;;;0.10;0.10;;;;;;;;;;5016000;28;20205;-66
2021/06/30 08:04:07;;;;;;;0.10;0.10;;;;;;;;;;5016910;28;20215;-65
2021/06/30 08:06:35;;;;;;;0.10;0.10;;;;;;;;;;5004063;28;20501;-66
2021/06/30 08:09:02;;;;;;;0.10;0.10;;;;;;;;;;5014851;28;20212;-67
2021/06/30 08:11:28;;;;;;;0.10;0.10;;;;;;;;;;5022505;28;20202;-65
2021/06/30 08:13:56;;;;;;;0.03;0.03;;;;;;;;;;5022901;28;20212;-65
2021/06/30 08:16:22;;;;;;;0.00;0.00;;;;;;;;;;5021875;28;20295;-66
2021/06/30 08:18:49;;;;;;;0.10;0.10;;;;;;;;;;5018903;28;20205;-65
2021/06/30 08:21:16;;;;;;;0.08;0.08;;;;;;;;;;5018398;28;20420;-66
2021/06/30 08:23:43;;;;;;;0.00;0.00;;;;;;;;;;5022860;28;20236;-67
2021/06/30 08:26:10;;;;;;;0.00;0.00;;;;;;;;;;5022764;28;20236;-68
2021/06/30 08:28:37;;;;;;;3.50;3.30;;;;;;;;;;5004354;28;20215;-70
2021/06/30 08:31:05;;;;;;;0.00;0.00;;;;;;;;;;5013870;28;20207;-70
2021/06/30 08:33:32;;;;;;;0.10;0.10;;;;;;;;;;5022922;28;20206;-70
2021/06/30 08:35:58;;;;;;;0.03;0.03;;;;;;;;;;5013191;28;20207;-72
2021/06/30 08:38:24;;;;;;;0.10;0.10;;;;;;;;;;5005099;28;20242;-69
2021/06/30 08:40:53;;;;;;;0.10;0.10;;;;;;;;;;5022922;28;20258;-69
2021/06/30 08:43:19;;;;;;;0.08;0.08;;;;;;;;;;5010451;28;20274;-69
2021/06/30 08:45:45;;;;;;;0.00;0.00;;;;;;;;;;5008925;28;20221;-68
2021/06/30 08:48:13;;;;;;;0.00;0.00;;;;;;;;;;5022327;28;20212;-63
2021/06/30 08:50:40;;;;;;;0.08;0.08;;;;;;;;;;5022274;28;20299;-64
2021/06/30 08:53:09;;;;;;;0.00;0.00;;;;;;;;;;5022798;28;20245;-63
2021/06/30 08:55:36;;;;;;;0.00;0.00;;;;;;;;;;5022873;28;20530;-64
2021/06/30 08:58:03;;;;;;;0.05;0.05;;;;;;;;;;5022027;28;20209;-64
2021/06/30 09:00:29;;;;;;;0.00;0.00;;;;;;;;;;5019748;28;20214;-63
2021/06/30 09:02:58;;;;;;;0.00;0.00;;;;;;;;;;5012130;28;20245;-63
2021/06/30 09:05:39;;;;;;;0.00;0.00;;;;;;;;;;5019480;28;20410;-65
2021/06/30 09:08:05;;;;;;;0.00;0.00;;;;;;;;;;5016766;28;20204;-63
2021/06/30 09:10:32;;;;;;;0.00;0.00;;;;;;;;;;5005877;28;20209;-64
2021/06/30 09:12:58;;;;;;;0.08;0.08;;;;;;;;;;5021734;28;20316;-64
2021/06/30 09:15:29;;;;;;;0.10;0.10;;;;;;;;;;5011676;28;20500;-64
2021/06/30 09:17:55;;;;;;;0.00;0.00;;;;;;;;;;5006361;28;20223;-64
2021/06/30 09:20:22;;;;;;;0.10;0.10;;;;;;;;;;5022318;28;20259;-64
2021/06/30 09:22:51;;;;;;;0.00;0.00;;;;;;;;;;5011529;28;20208;-64
2021/06/30 09:25:27;;;;;;;0.10;0.10;;;;;;;;;;5016695;28;20410;-64
2021/06/30 09:27:54;;;;;;;0.00;0.00;;;;;;;;;;5007755;28;20215;-64
2021/06/30 09:30:20;;;;;;;1.95;1.95;;;;;;;;;;5014067;28;20203;-65
2021/06/30 09:33:00;;;;;;;0.00;0.00;;;;;;;;;;5021357;28;20493;-65
2021/06/30 09:35:27;;;;;;;0.00;0.00;;;;;;;;;;5020998;28;20207;-64
2021/06/30 09:37:55;;;;;;;0.35;0.35;;;;;;;;;;5022538;28;20213;-64
2021/06/30 09:40:21;;;;;;;0.08;0.08;;;;;;;;;;5020915;28;20316;-64
2021/06/30 09:42:48;;;;;;;0.00;0.00;;;;;;;;;;5021226;28;20205;-64
2021/06/30 09:45:15;;;;;;;0.08;0.08;;;;;;;;;;5020533;28;20227;-64
2021/06/30 09:47:42;;;;;;;0.00;0.00;;;;;;;;;;5021239;28;20202;-67
2021/06/30 09:50:09;;;;;;;0.10;0.10;;;;;;;;;;5021210;28;20257;-68
2021/06/30 09:52:38;;;;;;;0.00;0.00;;;;;;;;;;5021948;28;20501;-67
2021/06/30 09:55:22;;;;;;;0.08;0.08;;;;;;;;;;5014067;28;20203;-67
2021/06/30 09:57:48;;;;;;;0.10;0.10;;;;;;;;;;5023056;28;20360;-67
2021/06/30 10:00:14;;;;;;;0.08;0.08;;;;;;;;;;5016368;28;20207;-67
2021/06/30 10:02:44;;;;;;;0.10;0.10;;;;;;;;;;5007751;28;20211;-67
2021/06/30 10:05:10;;;;;;;0.00;0.00;;;;;;;;;;5025604;28;20298;-65
2021/06/30 10:07:36;;;;;;;0.10;0.10;;;;;;;;;;5025174;28;20249;-66
2021/06/30 10:10:05;;;;;;;0.00;0.00;;;;;;;;;;5023290;28;20218;-66
2021/06/30 10:12:33;;;;;;;0.10;0.10;;;;;;;;;;5021465;28;20269;-66
2021/06/30 10:15:00;;;;;;;0.10;0.10;;;;;;;;;;5023962;28;20240;-66
2021/06/30 10:17:27;;;;;;;0.00;0.00;;;;;;;;;;5018908;28;20265;-66
2021/06/30 10:19:54;;;;;;;0.05;0.05;;;;;;;;;;5019521;28;20262;-67
2021/06/30 10:22:21;;;;;;;0.10;0.10;;;;;;;;;;5021081;28;20247;-67
2021/06/30 10:24:47;;;;;;;0.10;0.10;;;;;;;;;;5022300;28;20306;-67
2021/06/30 10:27:14;;;;;;;0.00;0.00;;;;;;;;;;5020066;28;20223;-67
2021/06/30 10:29:44;;;;;;;0.10;0.10;;;;;;;;;;5023325;28;20551;-67
2021/06/30 10:32:12;;;;;;;0.00;0.00;;;;;;;;;;5023334;28;20220;-67
2021/06/30 10:34:40;;;;;;;0.05;0.05;;;;;;;;;;5021062;28;20523;-67
2021/06/30 10:37:20;;;;;;;0.00;0.00;;;;;;;;;;5021974;28;20207;-66
2021/06/30 10:39:47;;;;;;;0.03;0.03;;;;;;;;;;5018900;28;20234;-67
2021/06/30 10:42:21;;;;;;;0.10;0.10;;;;;;;;;;5020753;28;20243;-67
2021/06/30 10:44:49;;;;;;;0.00;0.00;;;;;;;;;;5023277;28;20200;-67
2021/06/30 10:47:29;;;;;;;0.10;0.10;;;;;;;;;;5022696;28;20471;-65
2021/06/30 10:50:22;;;;;;;0.10;0.10;;;;;;;;;;5021113;28;20219;-66
2021/06/30 10:52:49;;;;;;;0.00;0.00;;;;;;;;;;5018013;28;20204;-66
2021/06/30 10:55:31;;;;;;;0.03;0.03;;;;;;;;;;5019846;28;20388;-67
2021/06/30 10:58:12;;;;;;;0.00;0.00;;;;;;;;;;5019152;28;20223;-66
2021/06/30 11:00:40;;;;;;;0.10;0.10;;;;;;;;;;5021849;28;20209;-67
2021/06/30 11:03:37;;;;;;;0.10;0.10;;;;;;;;;;5016942;28;20203;-69
2021/06/30 11:06:18;;;;;;;0.08;0.08;;;;;;;;;;5023774;28;20281;-68
2021/06/30 11:08:45;;;;;;;0.10;0.10;;;;;;;;;;5018744;28;20274;-67
2021/06/30 11:11:12;;;;;;;0.00;0.00;;;;;;;;;;5021957;28;20234;-68
2021/06/30 11:13:58;;;;;;;0.00;0.00;;;;;;;;;;5021336;28;20216;-69
2021/06/30 11:16:48;;;;;;;0.00;0.00;;;;;;;;;;5017426;28;20278;-69
2021/06/30 11:19:29;;;;;;;0.00;0.00;;;;;;;;;;5020179;28;20230;-68
2021/06/30 11:21:56;;;;;;;0.00;0.00;;;;;;;;;;5014785;28;20294;-67
2021/06/30 11:24:43;;;;;;;0.03;0.03;;;;;;;;;;5022878;28;20202;-68
2021/06/30 11:27:25;;;;;;;0.10;0.10;;;;;;;;;;5022205;28;20221;-73
2021/06/30 11:29:54;;;;;;;0.00;0.00;;;;;;;;;;5021816;28;20207;-72
2021/06/30 11:32:35;;;;;;;0.00;0.00;;;;;;;;;;5020148;28;20215;-73
2021/06/30 11:35:04;;;;;;;0.45;0.45;;;;;;;;;;5022319;28;20203;-73
2021/06/30 11:37:30;;;;;;;0.00;0.00;;;;;;;;;;5017211;28;20209;-73
2021/06/30 11:39:59;;;;;;;0.00;0.00;;;;;;;;;;5021436;28;20214;-67
2021/06/30 11:42:30;;;;;;;0.00;0.00;;;;;;;;;;5022067;28;20205;-66
2021/06/30 11:44:56;;;;;;;0.10;0.10;;;;;;;;;;5017177;28;20203;-68
2021/06/30 11:47:22;;;;;;;0.08;0.08;;;;;;;;;;5022284;28;20223;-66
2021/06/30 11:49:49;;;;;;;0.00;0.00;;;;;;;;;;5022008;28;20214;-66
2021/06/30 11:52:16;;;;;;;0.00;0.00;;;;;;;;;;5020204;28;20262;-68
2021/06/30 11:54:42;;;;;;;0.03;0.03;;;;;;;;;;5020697;28;20235;-67
2021/06/30 11:57:09;;;;;;;0.00;0.00;;;;;;;;;;5021834;28;20204;-68
2021/06/30 11:59:36;;;;;;;0.03;0.03;;;;;;;;;;5020375;28;20425;-68
2021/06/30 12:02:03;;;;;;;0.10;0.10;;;;;;;;;;5019839;28;20204;-69
2021/06/30 12:04:29;;;;;;;0.00;0.00;;;;;;;;;;5016817;28;20391;-68
2021/06/30 12:06:57;;;;;;;0.00;0.00;;;;;;;;;;5018327;28;20444;-68
2021/06/30 12:09:25;;;;;;;0.00;0.00;;;;;;;;;;5009777;28;20266;-68
2021/06/30 12:11:53;;;;;;;0.00;0.00;;;;;;;;;;5017465;28;20216;-67
2021/06/30 12:14:21;;;;;;;0.03;0.03;;;;;;;;;;5018410;28;20286;-68
2021/06/30 12:16:48;;;;;;;0.10;0.10;;;;;;;;;;5015763;28;20217;-67
2021/06/30 12:19:15;;;;;;;0.03;0.03;;;;;;;;;;5019176;28;20274;-66
2021/06/30 12:21:42;;;;;;;0.00;0.00;;;;;;;;;;5021764;28;20298;-67
2021/06/30 12:24:12;;;;;;;0.10;0.10;;;;;;;;;;5019745;28;20282;-66
2021/06/30 12:26:53;;;;;;;0.00;0.00;;;;;;;;;;5018087;28;20228;-67
2021/06/30 12:29:21;;;;;;;0.00;0.00;;;;;;;;;;5017593;28;20275;-67
2021/06/30 12:31:47;;;;;;;0.00;0.00;;;;;;;;;;5019667;28;20301;-66
2021/06/30 12:34:13;;;;;;;0.00;0.00;;;;;;;;;;5020061;28;20420;-66
2021/06/30 12:36:41;;;;;;;0.40;0.40;;;;;;;;;;5016575;28;20417;-67
2021/06/30 12:39:16;;;;;;;0.00;0.00;;;;;;;;;;5021098;28;20303;-67
2021/06/30 12:41:49;;;;;;;0.00;0.00;;;;;;;;;;5017300;28;20502;-67
2021/06/30 12:44:15;;;;;;;0.10;0.10;;;;;;;;;;5022740;28;20221;-67
2021/06/30 12:46:43;;;;;;;0.08;0.08;;;;;;;;;;5022963;28;20227;-68
2021/06/30 12:49:13;;;;;;;0.00;0.00;;;;;;;;;;5019311;28;20211;-67
2021/06/30 12:51:39;;;;;;;0.10;0.10;;;;;;;;;;5023317;28;20225;-66
2021/06/30 12:54:06;;;;;;;0.00;0.00;;;;;;;;;;5022960;28;20366;-64
2021/06/30 12:56:35;;;;;;;0.05;0.05;;;;;;;;;;5022937;28;20199;-64
2021/06/30 12:59:11;;;;;;;0.10;0.10;;;;;;;;;;5019497;28;20523;-67
2021/06/30 13:01:39;;;;;;;0.10;0.10;;;;;;;;;;5022687;28;20491;-64
2021/06/30 13:04:08;;;;;;;0.03;0.03;;;;;;;;;;5022990;28;20545;-64
2021/06/30 13:06:35;;;;;;;0.10;0.10;;;;;;;;;;5022499;28;20227;-66
2021/06/30 13:09:02;;;;;;;0.00;0.00;;;;;;;;;;5023314;28;20384;-66
2021/06/30 13:11:29;;;;;;;0.08;0.08;;;;;;;;;;5023146;28;20230;-66
2021/06/30 13:13:59;;;;;;;0.00;0.00;;;;;;;;;;5023098;28;20350;-66
2021/06/30 13:16:26;;;;;;;0.10;0.10;;;;;;;;;;5022482;28;20279;-64
2021/06/30 13:18:56;;;;;;;0.03;0.03;;;;;;;;;;5022653;28;20225;-65
2021/06/30 13:21:24;;;;;;;0.00;0.00;;;;;;;;;;5014712;28;20229;-65
2021/06/30 13:23:57;;;;;;;0.10;0.10;;;;;;;;;;5012709;28;20277;-66
2021/06/30 13:35:24;;;;;;;0.00;0.00;;;;;;;;;;5013550;28;20320;-64
2021/06/30 13:37:53;;;;;;;0.00;0.00;;;;;;;;;;5022040;28;20206;-65
2021/06/30 13:40:19;;;;;;;0.00;0.00;;;;;;;;;;5020924;28;20216;-66
2021/06/30 13:42:46;;;;;;;0.00;0.00;;;;;;;;;;5025849;28;20425;-65
2021/06/30 13:45:12;;;;;;;0.10;0.10;;;;;;;;;;5025656;28;20210;-64
2021/06/30 13:47:38;;;;;;;0.00;0.00;;;;;;;;;;5022961;28;20223;-65
2021/06/30 13:50:05;;;;;;;0.00;0.00;;;;;;;;;;5025598;28;20501;-65
2021/06/30 13:52:33;;;;;;;0.00;0.00;;;;;;;;;;5024305;28;20202;-67
2021/06/30 13:55:00;;;;;;;0.00;0.00;;;;;;;;;;5014208;28;20203;-64
2021/06/30 13:57:27;;;;;;;0.10;0.10;;;;;;;;;;5025899;28;20250;-66
2021/06/30 13:59:53;;;;;;;0.00;0.00;;;;;;;;;;5006366;28;20205;-65
2021/06/30 14:02:19;;;;;;;0.10;0.10;;;;;;;;;;5006283;28;20254;-64
2021/06/30 14:04:45;;;;;;;0.10;0.10;;;;;;;;;;5024689;28;20456;-64
2021/06/30 14:07:12;;;;;;;0.00;0.00;;;;;;;;;;5025642;28;20248;-64
2021/06/30 14:09:38;;;;;;;0.05;0.05;;;;;;;;;;5025945;28;20459;-64
2021/06/30 14:12:08;;;;;;;0.10;0.10;;;;;;;;;;5025494;28;20208;-64
2021/06/30 14:14:34;;;;;;;0.00;0.00;;;;;;;;;;5025627;28;20216;-64
2021/06/30 14:17:00;;;;;;;0.00;0.00;;;;;;;;;;5018324;28;20515;-65
2021/06/30 14:19:27;;;;;;;0.00;0.00;;;;;;;;;;5006029;28;20250;-65
2021/06/30 14:21:53;;;;;;;0.10;0.10;;;;;;;;;;5020007;28;20217;-66
2021/06/30 14:24:19;;;;;;;0.10;0.10;;;;;;;;;;5020700;28;20240;-65
2021/06/30 14:26:46;;;;;;;0.10;0.10;;;;;;;;;;5013095;28;20223;-65
2021/06/30 14:29:14;;;;;;;0.08;0.08;;;;;;;;;;5025118;28;20207;-65
2021/06/30 14:31:40;;;;;;;0.10;0.10;;;;;;;;;;5019651;28;20285;-64
2021/06/30 14:34:06;;;;;;;0.00;0.00;;;;;;;;;;5023222;28;20204;-65
2021/06/30 14:36:32;;;;;;;0.10;0.10;;;;;;;;;;5020401;28;20210;-65
2021/06/30 14:38:59;;;;;;;0.10;0.10;;;;;;;;;;5024986;28;20203;-64
2021/06/30 14:41:25;;;;;;;0.10;0.10;;;;;;;;;;5024918;28;20248;-65
2021/06/30 14:43:51;;;;;;;0.10;0.10;;;;;;;;;;5025248;28;20276;-65
2021/06/30 14:46:19;;;;;;;0.10;0.10;;;;;;;;;;5014432;28;20205;-65
2021/06/30 14:48:45;;;;;;;0.10;0.10;;;;;;;;;;5019953;28;20230;-65
2021/06/30 14:51:11;;;;;;;0.10;0.10;;;;;;;;;;5023817;28;20486;-64
2021/06/30 14:53:38;;;;;;;0.00;0.00;;;;;;;;;;5014260;28;20401;-64